Time;durP1;ratioP1;P1;durP2;ratioP2;P2;SDS_P1;SDS_P2;PMS_P1;PMS_P2;Temp;Humidity;BMP_temperature;BMP_pressure;BME280_temperature;BME280_humidity;BME280_pressure;Samples;Min_cycle;Max_cycle;Signal;HPM_P1;HPM_P2
2024/02/12 00:01:13;;;;;;;0.85;0.60;;;;;;;;;;5061251;28;20060;-80
2024/02/12 00:03:41;;;;;;;1.45;0.75;;;;;;;;;;5061234;28;20052;-80
2024/02/12 00:06:15;;;;;;;1.52;0.80;;;;;;;;;;5059490;28;20057;-80
2024/02/12 00:08:43;;;;;;;0.93;0.60;;;;;;;;;;5077854;28;20113;-80
2024/02/12 00:11:12;;;;;;;1.42;0.60;;;;;;;;;;5065043;28;20063;-81
2024/02/12 00:13:40;;;;;;;1.73;0.60;;;;;;;;;;5064213;28;20048;-81
2024/02/12 00:16:09;;;;;;;1.00;0.75;;;;;;;;;;5080997;28;20080;-81
2024/02/12 00:18:37;;;;;;;0.90;0.68;;;;;;;;;;5064180;28;20103;-80
2024/02/12 00:21:05;;;;;;;1.25;0.88;;;;;;;;;;5063488;28;20124;-80
2024/02/12 00:23:34;;;;;;;1.55;0.70;;;;;;;;;;5064649;28;20049;-80
2024/02/12 00:26:05;;;;;;;1.10;0.40;;;;;;;;;;5061420;28;20052;-80
2024/02/12 00:28:34;;;;;;;1.98;0.70;;;;;;;;;;5063363;28;20079;-81
2024/02/12 00:31:02;;;;;;;0.60;0.60;;;;;;;;;;5075737;28;20108;-81
2024/02/12 00:33:29;;;;;;;1.13;0.60;;;;;;;;;;5063670;28;20076;-81
2024/02/12 00:36:01;;;;;;;0.98;0.70;;;;;;;;;;5053430;28;20084;-80
2024/02/12 00:38:31;;;;;;;3.40;0.82;;;;;;;;;;5074578;28;20059;-81
2024/02/12 00:41:02;;;;;;;1.27;0.65;;;;;;;;;;5041967;28;20108;-81
2024/02/12 00:43:31;;;;;;;2.72;0.60;;;;;;;;;;5074140;28;20060;-81
2024/02/12 00:46:04;;;;;;;0.95;0.70;;;;;;;;;;5041093;28;20049;-81
2024/02/12 00:48:32;;;;;;;0.95;0.70;;;;;;;;;;5057902;28;20049;-81
2024/02/12 00:51:05;;;;;;;1.35;0.75;;;;;;;;;;5043188;28;20056;-81
2024/02/12 00:53:38;;;;;;;0.95;0.60;;;;;;;;;;5071229;28;20135;-80
2024/02/12 00:56:07;;;;;;;1.95;0.52;;;;;;;;;;5034481;28;20053;-80
2024/02/12 00:58:35;;;;;;;1.33;0.65;;;;;;;;;;5056221;28;20123;-80
2024/02/12 01:01:04;;;;;;;1.23;0.65;;;;;;;;;;5058419;28;20049;-80
2024/02/12 01:03:32;;;;;;;2.28;0.63;;;;;;;;;;5058564;28;20053;-80
2024/02/12 01:05:59;;;;;;;0.55;0.40;;;;;;;;;;5040556;28;20057;-80
2024/02/12 01:08:27;;;;;;;0.77;0.65;;;;;;;;;;5055379;28;20056;-81
2024/02/12 01:10:54;;;;;;;1.05;0.50;;;;;;;;;;5046622;28;20053;-80
2024/02/12 01:13:22;;;;;;;0.70;0.43;;;;;;;;;;5070195;28;20079;-81
2024/02/12 01:15:50;;;;;;;1.00;0.50;;;;;;;;;;5077089;28;20048;-81
2024/02/12 01:18:19;;;;;;;0.88;0.45;;;;;;;;;;5058597;28;20092;-81
2024/02/12 01:20:47;;;;;;;1.38;0.82;;;;;;;;;;5038033;28;20071;-80
2024/02/12 01:23:17;;;;;;;3.22;0.82;;;;;;;;;;5070038;28;20052;-82
2024/02/12 01:25:50;;;;;;;1.02;0.40;;;;;;;;;;5052696;28;20059;-81
2024/02/12 01:28:17;;;;;;;0.93;0.50;;;;;;;;;;5057541;28;20049;-81
2024/02/12 01:30:45;;;;;;;2.38;0.90;;;;;;;;;;5056679;28;20288;-81
2024/02/12 01:33:15;;;;;;;2.10;0.57;;;;;;;;;;5075947;28;20136;-81
2024/02/12 01:35:44;;;;;;;2.08;1.02;;;;;;;;;;5060121;28;20052;-81
2024/02/12 01:38:14;;;;;;;0.70;0.40;;;;;;;;;;5075410;28;20400;-83
2024/02/12 01:40:44;;;;;;;0.98;0.82;;;;;;;;;;5056122;28;20545;-82
2024/02/12 01:43:30;;;;;;;0.73;0.63;;;;;;;;;;5060571;28;20534;-79
2024/02/12 01:45:59;;;;;;;1.20;0.88;;;;;;;;;;5060322;28;20044;-80
2024/02/12 01:48:26;;;;;;;2.50;0.93;;;;;;;;;;5061231;28;20041;-80
2024/02/12 01:50:54;;;;;;;0.80;0.40;;;;;;;;;;5043487;28;20101;-80
2024/02/12 01:53:23;;;;;;;1.30;0.82;;;;;;;;;;5057581;28;20053;-80
2024/02/12 01:55:53;;;;;;;1.98;0.43;;;;;;;;;;5056140;28;20155;-81
2024/02/12 01:58:21;;;;;;;1.10;0.50;;;;;;;;;;5058802;28;20099;-81
2024/02/12 02:00:49;;;;;;;1.60;0.55;;;;;;;;;;5058414;28;20056;-81
2024/02/12 02:03:17;;;;;;;2.05;0.60;;;;;;;;;;5074793;28;20135;-81
2024/02/12 02:05:48;;;;;;;0.77;0.60;;;;;;;;;;5058484;28;20053;-81
2024/02/12 02:08:16;;;;;;;1.73;0.63;;;;;;;;;;5042036;28;20127;-81
2024/02/12 02:10:49;;;;;;;1.10;0.50;;;;;;;;;;5072938;28;20080;-82
2024/02/12 02:13:18;;;;;;;0.73;0.50;;;;;;;;;;5042273;28;20053;-81
2024/02/12 02:15:46;;;;;;;2.33;0.50;;;;;;;;;;5072613;28;20088;-81
2024/02/12 02:18:14;;;;;;;1.85;1.10;;;;;;;;;;5054860;28;20099;-81
2024/02/12 02:20:42;;;;;;;0.60;0.50;;;;;;;;;;5055402;28;20052;-81
2024/02/12 02:23:10;;;;;;;1.98;0.90;;;;;;;;;;5066901;28;20049;-81
2024/02/12 02:25:40;;;;;;;0.88;0.52;;;;;;;;;;5057166;28;20112;-80
2024/02/12 02:28:09;;;;;;;1.75;0.68;;;;;;;;;;5071267;28;20041;-81
2024/02/12 02:30:39;;;;;;;1.17;0.60;;;;;;;;;;5063238;28;20155;-81
2024/02/12 02:33:06;;;;;;;1.77;0.60;;;;;;;;;;5045449;28;20143;-81
2024/02/12 02:35:34;;;;;;;1.73;0.70;;;;;;;;;;5066463;28;20060;-81
2024/02/12 02:38:03;;;;;;;1.48;0.80;;;;;;;;;;5065393;28;20499;-81
2024/02/12 02:40:31;;;;;;;2.17;0.47;;;;;;;;;;5063667;28;20049;-81
2024/02/12 02:43:00;;;;;;;1.23;0.50;;;;;;;;;;5065985;28;20045;-81
2024/02/12 02:45:30;;;;;;;1.30;0.30;;;;;;;;;;5084329;28;20506;-80
2024/02/12 02:47:58;;;;;;;2.70;1.05;;;;;;;;;;5083916;28;20120;-81
2024/02/12 02:50:29;;;;;;;0.35;0.32;;;;;;;;;;5077044;28;20111;-81
2024/02/12 02:52:58;;;;;;;0.77;0.50;;;;;;;;;;5039900;28;20053;-79
2024/02/12 02:55:27;;;;;;;0.50;0.50;;;;;;;;;;5073838;28;20057;-80
2024/02/12 02:58:01;;;;;;;0.70;0.35;;;;;;;;;;5052763;28;20080;-80
2024/02/12 03:00:30;;;;;;;0.70;0.32;;;;;;;;;;5072666;28;20571;-79
2024/02/12 03:02:58;;;;;;;1.65;0.47;;;;;;;;;;5038662;28;20124;-79
2024/02/12 03:05:27;;;;;;;0.40;0.20;;;;;;;;;;5073343;28;20053;-80
2024/02/12 03:07:55;;;;;;;0.32;0.22;;;;;;;;;;5074180;28;20167;-80
2024/02/12 03:10:23;;;;;;;0.30;0.20;;;;;;;;;;5040955;28;20064;-80
2024/02/12 03:12:50;;;;;;;1.30;0.50;;;;;;;;;;5050509;28;20067;-80
2024/02/12 03:15:21;;;;;;;0.63;0.52;;;;;;;;;;5061915;28;20052;-81
2024/02/12 03:17:48;;;;;;;0.52;0.32;;;;;;;;;;5061994;28;20044;-79
2024/02/12 03:20:17;;;;;;;0.40;0.30;;;;;;;;;;5058192;28;20053;-80
2024/02/12 03:22:45;;;;;;;0.77;0.40;;;;;;;;;;5041324;28;20060;-80
2024/02/12 03:25:13;;;;;;;0.88;0.50;;;;;;;;;;5062111;28;20056;-79
2024/02/12 03:27:43;;;;;;;0.45;0.30;;;;;;;;;;5075781;28;20588;-80
2024/02/12 03:30:11;;;;;;;1.02;0.65;;;;;;;;;;5060122;28;20055;-79
2024/02/12 03:32:39;;;;;;;0.43;0.40;;;;;;;;;;5060058;28;20059;-80
2024/02/12 03:35:07;;;;;;;0.55;0.30;;;;;;;;;;5059406;28;20106;-79
2024/02/12 03:37:35;;;;;;;0.40;0.20;;;;;;;;;;5059984;28;20044;-82
2024/02/12 03:40:12;;;;;;;0.52;0.32;;;;;;;;;;5082721;28;20084;-81
2024/02/12 03:42:40;;;;;;;0.50;0.40;;;;;;;;;;5066565;28;20074;-81
2024/02/12 03:45:08;;;;;;;1.48;0.32;;;;;;;;;;5061552;28;20080;-81
2024/02/12 03:47:39;;;;;;;0.30;0.30;;;;;;;;;;5056457;28;20058;-81
2024/02/12 04:01:21;;;;;;;0.20;0.20;;;;;;;;;;5062650;28;20045;-80
2024/02/12 04:03:49;;;;;;;0.73;0.40;;;;;;;;;;5071367;28;20558;-80
2024/02/12 04:06:17;;;;;;;1.00;0.40;;;;;;;;;;5058284;28;20049;-80
2024/02/12 04:08:50;;;;;;;0.98;0.30;;;;;;;;;;5076164;28;20122;-80
2024/02/12 04:11:18;;;;;;;0.57;0.30;;;;;;;;;;5078960;28;20045;-80
2024/02/12 04:13:49;;;;;;;0.57;0.30;;;;;;;;;;5064245;28;20064;-80
2024/02/12 04:16:17;;;;;;;2.05;0.90;;;;;;;;;;5064097;28;20056;-80
2024/02/12 04:18:50;;;;;;;0.57;0.38;;;;;;;;;;5062291;28;20108;-80
2024/02/12 04:21:20;;;;;;;0.52;0.40;;;;;;;;;;5077923;28;20049;-80
2024/02/12 04:23:53;;;;;;;0.57;0.45;;;;;;;;;;5079365;28;20088;-79
2024/02/12 04:26:22;;;;;;;0.40;0.22;;;;;;;;;;5063139;28;20512;-80
2024/02/12 04:28:49;;;;;;;0.63;0.50;;;;;;;;;;5079537;28;20055;-80
2024/02/12 04:31:17;;;;;;;0.93;0.35;;;;;;;;;;5046505;28;20044;-79
2024/02/12 04:33:46;;;;;;;0.40;0.20;;;;;;;;;;5078713;28;20056;-80
2024/02/12 04:36:15;;;;;;;0.40;0.30;;;;;;;;;;5043022;28;20059;-80
2024/02/12 04:38:42;;;;;;;0.30;0.30;;;;;;;;;;5073148;28;20132;-80
2024/02/12 04:41:12;;;;;;;1.50;0.40;;;;;;;;;;5052292;28;20509;-79
2024/02/12 04:43:44;;;;;;;1.88;0.47;;;;;;;;;;5069846;28;20072;-80
2024/02/12 04:46:12;;;;;;;0.80;0.47;;;;;;;;;;5039754;28;20087;-80
2024/02/12 04:48:40;;;;;;;1.02;0.50;;;;;;;;;;5072478;28;20045;-81
2024/02/12 04:51:08;;;;;;;0.45;0.45;;;;;;;;;;5052403;28;20049;-79
2024/02/12 04:53:36;;;;;;;0.93;0.40;;;;;;;;;;5054463;28;20087;-81
2024/02/12 04:56:04;;;;;;;1.70;0.38;;;;;;;;;;5056207;28;20059;-82
2024/02/12 04:58:36;;;;;;;0.90;0.35;;;;;;;;;;5046376;28;20107;-81
2024/02/12 05:01:04;;;;;;;0.70;0.60;;;;;;;;;;5033423;28;20057;-81
2024/02/12 05:03:33;;;;;;;0.30;0.30;;;;;;;;;;5053826;28;20107;-81
2024/02/12 05:06:01;;;;;;;0.50;0.38;;;;;;;;;;5043532;28;20049;-81
2024/02/12 05:08:31;;;;;;;0.75;0.50;;;;;;;;;;5061875;28;20056;-82
2024/02/12 05:11:03;;;;;;;1.27;0.55;;;;;;;;;;5075734;28;20045;-81
2024/02/12 05:13:31;;;;;;;0.70;0.50;;;;;;;;;;5039360;28;20053;-80
2024/02/12 05:15:59;;;;;;;0.93;0.85;;;;;;;;;;5056283;28;20064;-81
2024/02/12 05:24:00;;;;;;;0.80;0.40;;;;;;;;;;5051167;28;20048;-80
2024/02/12 05:26:27;;;;;;;0.85;0.65;;;;;;;;;;5050332;28;20049;-80
2024/02/12 05:28:55;;;;;;;1.08;0.60;;;;;;;;;;5049997;28;20064;-79
2024/02/12 05:31:25;;;;;;;0.30;0.30;;;;;;;;;;5049602;28;20052;-78
2024/02/12 05:33:55;;;;;;;1.87;0.43;;;;;;;;;;5048733;28;20056;-80
2024/02/12 05:36:23;;;;;;;0.80;0.60;;;;;;;;;;5049816;28;20765;-80
2024/02/12 05:38:51;;;;;;;0.95;0.55;;;;;;;;;;5049360;28;21345;-80
2024/02/12 05:41:19;;;;;;;1.17;0.63;;;;;;;;;;5051364;28;20064;-80
2024/02/12 05:43:47;;;;;;;0.60;0.50;;;;;;;;;;5061906;28;20051;-79
2024/02/12 05:46:20;;;;;;;1.35;1.02;;;;;;;;;;5061152;28;20128;-79
2024/02/12 05:48:48;;;;;;;2.50;0.77;;;;;;;;;;5051582;28;20404;-84
2024/02/12 05:51:16;;;;;;;1.33;0.93;;;;;;;;;;5050730;28;20072;-80
2024/02/12 05:53:43;;;;;;;2.25;1.25;;;;;;;;;;5050243;28;20449;-81
2024/02/12 05:56:14;;;;;;;1.77;0.80;;;;;;;;;;5050794;28;20055;-81
2024/02/12 05:58:42;;;;;;;1.85;1.15;;;;;;;;;;5050720;28;20045;-82
2024/02/12 06:01:09;;;;;;;5.38;1.50;;;;;;;;;;5071007;28;20075;-81
2024/02/12 06:03:44;;;;;;;2.33;1.02;;;;;;;;;;5052319;28;20064;-80
2024/02/12 06:06:12;;;;;;;1.25;1.15;;;;;;;;;;5057654;28;20128;-81
2024/02/12 06:08:40;;;;;;;2.88;1.73;;;;;;;;;;5057750;28;20132;-81
2024/02/12 06:11:09;;;;;;;2.45;1.20;;;;;;;;;;5067409;28;20414;-81
2024/02/12 06:13:39;;;;;;;3.22;1.38;;;;;;;;;;5074406;28;20122;-81
2024/02/12 06:16:08;;;;;;;2.42;1.48;;;;;;;;;;5051948;28;20049;-81
2024/02/12 06:18:35;;;;;;;1.88;1.50;;;;;;;;;;5057453;28;20449;-80
2024/02/12 06:21:05;;;;;;;2.03;1.48;;;;;;;;;;5058410;28;20045;-81
2024/02/12 06:23:37;;;;;;;3.65;2.40;;;;;;;;;;5044300;28;20481;-81
2024/02/12 06:26:04;;;;;;;2.42;1.40;;;;;;;;;;5073791;28;20081;-81
2024/02/12 06:28:35;;;;;;;2.33;1.55;;;;;;;;;;5058023;28;20048;-81
2024/02/12 06:31:02;;;;;;;3.30;1.52;;;;;;;;;;5041764;28;20131;-81
2024/02/12 06:33:30;;;;;;;4.13;2.03;;;;;;;;;;5075662;28;20049;-82
2024/02/12 06:36:01;;;;;;;3.38;2.13;;;;;;;;;;5043076;28;20063;-81
2024/02/12 06:38:35;;;;;;;4.22;2.25;;;;;;;;;;5052381;28;20111;-82
2024/02/12 06:41:03;;;;;;;5.25;2.10;;;;;;;;;;5074024;28;20049;-81
2024/02/12 06:43:30;;;;;;;4.40;2.08;;;;;;;;;;5082559;28;20041;-81
2024/02/12 06:45:58;;;;;;;2.63;2.17;;;;;;;;;;5075029;28;20040;-82
2024/02/12 06:48:28;;;;;;;5.57;2.22;;;;;;;;;;5068377;28;20057;-81
2024/02/12 06:51:00;;;;;;;4.65;2.42;;;;;;;;;;5074266;28;20049;-82
2024/02/12 06:53:28;;;;;;;5.03;3.13;;;;;;;;;;5066438;28;20049;-83
2024/02/12 06:55:56;;;;;;;4.38;3.00;;;;;;;;;;5074768;28;20064;-83
2024/02/12 06:58:23;;;;;;;6.18;3.38;;;;;;;;;;5075182;28;20049;-82
2024/02/12 07:00:56;;;;;;;3.33;3.00;;;;;;;;;;5069364;28;20103;-82
2024/02/12 07:03:23;;;;;;;7.53;3.13;;;;;;;;;;5078223;28;20102;-82
2024/02/12 07:05:51;;;;;;;8.02;3.53;;;;;;;;;;5041095;28;20084;-82
2024/02/12 07:08:21;;;;;;;7.30;3.30;;;;;;;;;;5075567;28;20143;-83
2024/02/12 07:10:48;;;;;;;6.32;2.97;;;;;;;;;;5042679;28;20049;-82
2024/02/12 07:13:16;;;;;;;6.65;3.22;;;;;;;;;;5055336;28;20063;-83
2024/02/12 07:15:43;;;;;;;4.43;3.30;;;;;;;;;;5055579;28;20048;-84
2024/02/12 07:18:11;;;;;;;4.82;2.38;;;;;;;;;;5055193;28;20131;-82
2024/02/12 07:20:40;;;;;;;8.20;3.03;;;;;;;;;;5054316;28;20135;-78
2024/02/12 07:23:12;;;;;;;4.75;2.65;;;;;;;;;;5066646;28;20049;-79
2024/02/12 07:25:42;;;;;;;4.22;2.30;;;;;;;;;;5052828;28;20091;-78
2024/02/12 07:28:16;;;;;;;5.75;2.40;;;;;;;;;;5045179;28;20052;-78
2024/02/12 07:30:45;;;;;;;4.35;2.33;;;;;;;;;;5052840;28;20048;-78
2024/02/12 07:33:15;;;;;;;4.82;2.67;;;;;;;;;;5068412;28;20139;-76
2024/02/12 07:35:43;;;;;;;5.88;2.20;;;;;;;;;;5050239;28;20077;-77
2024/02/12 07:38:11;;;;;;;3.58;2.05;;;;;;;;;;5036730;28;20049;-78
2024/02/12 07:40:38;;;;;;;5.18;1.80;;;;;;;;;;5067254;28;20060;-76
2024/02/12 07:43:07;;;;;;;6.55;2.05;;;;;;;;;;5048105;28;20083;-77
2024/02/12 07:45:34;;;;;;;6.18;2.30;;;;;;;;;;5067037;28;20047;-77
2024/02/12 07:48:02;;;;;;;3.53;2.88;;;;;;;;;;5066542;28;20049;-77
2024/02/12 07:50:29;;;;;;;2.92;2.00;;;;;;;;;;5034029;28;20063;-77
2024/02/12 07:52:57;;;;;;;4.47;1.90;;;;;;;;;;5064622;28;20054;-77
2024/02/12 07:55:24;;;;;;;2.40;1.70;;;;;;;;;;5066400;28;20509;-76
2024/02/12 07:57:52;;;;;;;5.47;2.10;;;;;;;;;;5066307;28;20520;-77
2024/02/12 08:00:19;;;;;;;9.05;2.42;;;;;;;;;;5066624;28;20570;-77
2024/02/12 08:02:47;;;;;;;4.90;1.73;;;;;;;;;;5031726;28;20136;-76
2024/02/12 08:05:16;;;;;;;3.72;1.88;;;;;;;;;;5066303;28;20071;-77
2024/02/12 08:07:49;;;;;;;4.10;2.28;;;;;;;;;;5064181;28;20075;-77
2024/02/12 08:10:32;;;;;;;3.47;2.35;;;;;;;;;;5064771;28;20473;-77
2024/02/12 08:12:59;;;;;;;3.30;2.42;;;;;;;;;;5066417;28;20059;-77
2024/02/12 08:15:28;;;;;;;5.50;2.53;;;;;;;;;;5049607;28;20053;-76
2024/02/12 08:17:56;;;;;;;3.17;1.85;;;;;;;;;;5050363;28;20060;-77
2024/02/12 08:20:25;;;;;;;6.03;1.90;;;;;;;;;;5048914;28;20136;-77
2024/02/12 08:22:56;;;;;;;2.15;1.40;;;;;;;;;;5031639;28;20133;-77
2024/02/12 08:25:26;;;;;;;1.90;1.30;;;;;;;;;;5067233;28;20057;-76
2024/02/12 08:27:55;;;;;;;2.53;1.48;;;;;;;;;;5066143;28;20323;-78
2024/02/12 08:30:22;;;;;;;3.22;1.75;;;;;;;;;;5069209;28;20565;-77
2024/02/12 08:32:54;;;;;;;3.08;1.65;;;;;;;;;;5066025;28;20052;-75
2024/02/12 08:35:22;;;;;;;1.92;1.63;;;;;;;;;;5066233;28;20135;-76
2024/02/12 08:37:50;;;;;;;1.75;1.20;;;;;;;;;;5059182;28;20053;-76
2024/02/12 08:40:20;;;;;;;4.18;1.30;;;;;;;;;;5063647;28;20155;-76
2024/02/12 08:42:50;;;;;;;2.08;1.38;;;;;;;;;;5047932;28;20102;-76
2024/02/12 08:45:17;;;;;;;3.70;1.35;;;;;;;;;;5049429;28;20057;-76
2024/02/12 08:47:46;;;;;;;1.95;1.17;;;;;;;;;;5034973;28;20049;-76
2024/02/12 08:50:17;;;;;;;1.92;1.20;;;;;;;;;;5042504;28;20048;-75
2024/02/12 08:52:45;;;;;;;5.47;1.50;;;;;;;;;;5042096;28;20049;-76
2024/02/12 08:55:12;;;;;;;2.25;1.08;;;;;;;;;;5047120;28;20049;-75
2024/02/12 08:57:41;;;;;;;1.88;1.10;;;;;;;;;;5025511;28;20075;-75
2024/02/12 09:00:23;;;;;;;0.93;0.88;;;;;;;;;;5041928;28;20052;-75
2024/02/12 09:02:53;;;;;;;1.30;0.73;;;;;;;;;;5029355;28;20075;-75
2024/02/12 09:05:20;;;;;;;0.93;0.82;;;;;;;;;;5059153;28;20487;-75
2024/02/12 09:07:53;;;;;;;4.20;1.10;;;;;;;;;;5040519;28;20053;-75
2024/02/12 09:10:21;;;;;;;1.27;1.00;;;;;;;;;;5033392;28;20037;-76
2024/02/12 09:12:51;;;;;;;2.13;0.90;;;;;;;;;;5035712;28;20137;-76
2024/02/12 09:15:24;;;;;;;1.45;0.90;;;;;;;;;;5020831;28;20403;-76
2024/02/12 09:17:55;;;;;;;0.98;0.80;;;;;;;;;;5045968;28;20060;-76
2024/02/12 09:20:23;;;;;;;6.65;1.38;;;;;;;;;;5037157;28;20103;-76
2024/02/12 09:22:51;;;;;;;1.75;0.93;;;;;;;;;;5039085;28;20124;-76
2024/02/12 09:25:19;;;;;;;1.60;0.80;;;;;;;;;;5044817;28;20510;-76
2024/02/12 09:27:49;;;;;;;2.05;0.90;;;;;;;;;;5060313;28;20077;-76
2024/02/12 09:30:17;;;;;;;1.17;0.90;;;;;;;;;;5044186;28;20053;-76
2024/02/12 09:32:46;;;;;;;0.80;0.80;;;;;;;;;;5045104;28;20205;-76
2024/02/12 09:35:17;;;;;;;1.60;0.60;;;;;;;;;;5064630;28;20048;-75
2024/02/12 09:37:47;;;;;;;1.27;0.70;;;;;;;;;;5030563;28;20092;-75
2024/02/12 09:40:17;;;;;;;0.55;0.50;;;;;;;;;;5056232;28;20111;-74
2024/02/12 09:42:45;;;;;;;0.88;0.77;;;;;;;;;;5036845;28;20052;-74
2024/02/12 09:45:13;;;;;;;1.63;1.30;;;;;;;;;;5045708;28;20436;-74
2024/02/12 09:47:43;;;;;;;4.50;1.02;;;;;;;;;;5039792;28;20128;-74
2024/02/12 09:50:12;;;;;;;1.65;0.85;;;;;;;;;;5057636;28;20056;-75
2024/02/12 09:52:45;;;;;;;1.60;1.00;;;;;;;;;;5043802;28;20061;-75
2024/02/12 09:55:16;;;;;;;2.10;1.10;;;;;;;;;;5042904;28;20501;-75
2024/02/12 09:57:48;;;;;;;0.93;0.80;;;;;;;;;;5027926;28;20073;-75
2024/02/12 10:00:22;;;;;;;1.00;0.90;;;;;;;;;;5027904;28;20053;-75
2024/02/12 10:02:53;;;;;;;0.88;0.80;;;;;;;;;;5045701;28;20133;-75
2024/02/12 10:05:22;;;;;;;1.42;0.93;;;;;;;;;;5057999;28;20049;-74
2024/02/12 10:07:54;;;;;;;1.88;1.38;;;;;;;;;;5040836;28;20648;-75
2024/02/12 10:10:24;;;;;;;1.20;1.10;;;;;;;;;;5039057;28;20462;-75
2024/02/12 10:12:58;;;;;;;3.20;1.27;;;;;;;;;;5044945;28;20064;-74
2024/02/12 10:15:27;;;;;;;1.88;0.98;;;;;;;;;;5046880;28;20503;-75
2024/02/12 10:17:56;;;;;;;1.52;1.42;;;;;;;;;;5025711;28;20057;-75
2024/02/12 10:20:27;;;;;;;1.77;0.85;;;;;;;;;;5035152;28;20045;-74
2024/02/12 10:22:57;;;;;;;2.50;1.30;;;;;;;;;;5046863;28;20041;-75
2024/02/12 10:25:28;;;;;;;1.80;1.25;;;;;;;;;;5042527;28;20454;-75
2024/02/12 10:28:02;;;;;;;1.98;1.40;;;;;;;;;;5046560;28;20049;-74
2024/02/12 10:30:35;;;;;;;3.63;1.85;;;;;;;;;;5026676;28;20055;-75
2024/02/12 10:33:06;;;;;;;3.40;1.50;;;;;;;;;;5042354;28;20144;-75
2024/02/12 10:35:46;;;;;;;4.47;1.38;;;;;;;;;;5042684;28;20052;-75
2024/02/12 10:38:14;;;;;;;3.85;1.88;;;;;;;;;;5038446;28;20045;-74
2024/02/12 10:40:46;;;;;;;4.07;2.45;;;;;;;;;;5035835;28;20052;-74
2024/02/12 10:43:17;;;;;;;5.30;2.70;;;;;;;;;;5054340;28;20103;-74
2024/02/12 10:45:47;;;;;;;2.05;1.55;;;;;;;;;;5043335;28;20056;-74
2024/02/12 10:48:18;;;;;;;1.60;1.40;;;;;;;;;;5022553;28;20055;-75
2024/02/12 10:50:47;;;;;;;3.97;1.42;;;;;;;;;;5038618;28;20053;-74
2024/02/12 10:53:17;;;;;;;2.97;1.23;;;;;;;;;;5032516;28;20128;-75
2024/02/12 10:55:45;;;;;;;5.22;1.10;;;;;;;;;;5047785;28;20656;-74
2024/02/12 10:58:13;;;;;;;3.15;1.30;;;;;;;;;;5043990;28;20044;-75
2024/02/12 11:00:41;;;;;;;3.50;1.35;;;;;;;;;;5045805;28;20120;-76
2024/02/12 11:03:39;;;;;;;2.28;1.30;;;;;;;;;;5044515;28;20049;-76
2024/02/12 11:06:14;;;;;;;2.22;1.30;;;;;;;;;;5040987;28;20063;-77
2024/02/12 11:08:42;;;;;;;2.65;1.48;;;;;;;;;;5050155;28;20064;-77
2024/02/12 11:11:15;;;;;;;2.83;1.75;;;;;;;;;;5056787;28;20045;-76
2024/02/12 11:13:43;;;;;;;2.75;1.58;;;;;;;;;;5043362;28;20060;-76
2024/02/12 11:16:12;;;;;;;3.63;1.52;;;;;;;;;;5024706;28;20045;-77
2024/02/12 11:18:40;;;;;;;1.35;1.05;;;;;;;;;;5040700;28;20506;-77
2024/02/12 11:21:09;;;;;;;1.85;1.42;;;;;;;;;;5051349;28;20052;-76
2024/02/12 11:23:41;;;;;;;1.42;1.20;;;;;;;;;;5046293;28;20135;-77
2024/02/12 11:26:10;;;;;;;6.78;1.20;;;;;;;;;;5043844;28;20047;-77
2024/02/12 11:28:38;;;;;;;4.25;1.40;;;;;;;;;;5043569;28;20103;-77
2024/02/12 11:31:10;;;;;;;3.90;1.50;;;;;;;;;;5046043;28;20052;-77
2024/02/12 11:33:43;;;;;;;4.40;1.20;;;;;;;;;;5047719;28;20049;-77
2024/02/12 11:36:13;;;;;;;2.53;1.10;;;;;;;;;;5040279;28;20134;-76
2024/02/12 11:38:52;;;;;;;2.13;1.30;;;;;;;;;;5049396;28;20479;-77
2024/02/12 11:41:32;;;;;;;2.25;0.98;;;;;;;;;;5040161;28;20045;-77
2024/02/12 11:44:01;;;;;;;2.67;1.40;;;;;;;;;;5023470;28;20125;-77
2024/02/12 11:46:31;;;;;;;1.50;1.30;;;;;;;;;;5049201;28;20100;-76
2024/02/12 11:49:06;;;;;;;2.75;1.25;;;;;;;;;;5040499;28;20052;-76
2024/02/12 11:51:38;;;;;;;3.13;1.20;;;;;;;;;;5047302;28;20067;-76
2024/02/12 11:54:15;;;;;;;2.35;1.10;;;;;;;;;;5045840;28;20048;-76
2024/02/12 11:56:47;;;;;;;4.50;1.50;;;;;;;;;;5044855;28;20053;-76
2024/02/12 11:59:18;;;;;;;3.70;1.35;;;;;;;;;;5045954;28;20549;-77
2024/02/12 12:01:47;;;;;;;4.97;1.45;;;;;;;;;;5049108;28;20073;-76
2024/02/12 12:04:22;;;;;;;1.95;1.10;;;;;;;;;;5059916;28;20764;-77
2024/02/12 12:06:50;;;;;;;1.90;1.20;;;;;;;;;;5026260;28;20056;-76
2024/02/12 12:09:21;;;;;;;4.53;1.15;;;;;;;;;;5038170;28;20053;-76
2024/02/12 12:11:53;;;;;;;3.30;1.50;;;;;;;;;;5038541;28;20063;-76
2024/02/12 12:14:24;;;;;;;3.03;1.10;;;;;;;;;;5038637;28;20057;-77
2024/02/12 12:16:54;;;;;;;2.70;0.85;;;;;;;;;;5023589;28;20050;-76
2024/02/12 12:19:45;;;;;;;3.45;1.58;;;;;;;;;;5021938;28;20045;-77
2024/02/12 12:22:17;;;;;;;2.78;1.20;;;;;;;;;;5061434;28;20414;-77
2024/02/12 12:24:47;;;;;;;4.68;1.55;;;;;;;;;;5043303;28;20049;-76
2024/02/12 12:27:24;;;;;;;3.22;1.08;;;;;;;;;;5041725;28;20053;-77
2024/02/12 12:30:27;;;;;;;4.60;1.25;;;;;;;;;;5041741;28;20057;-76
2024/02/12 12:32:53;;;;;;;1.40;0.77;;;;;;;;;;5042086;28;20092;-76
2024/02/12 12:35:24;;;;;;;1.65;0.70;;;;;;;;;;5057059;28;20148;-77
2024/02/12 12:37:57;;;;;;;1.98;1.00;;;;;;;;;;5038107;28;20053;-77
2024/02/12 12:40:27;;;;;;;1.75;1.00;;;;;;;;;;5047862;28;20044;-76
2024/02/12 12:42:57;;;;;;;2.15;1.13;;;;;;;;;;5038812;28;20064;-79
2024/02/12 12:45:25;;;;;;;3.17;1.00;;;;;;;;;;5048720;28;20049;-79
2024/02/12 12:47:53;;;;;;;2.00;1.02;;;;;;;;;;5040196;28;20098;-79
2024/02/12 12:50:24;;;;;;;2.83;0.88;;;;;;;;;;5028346;28;20111;-78
2024/02/12 12:52:57;;;;;;;2.38;1.30;;;;;;;;;;5054754;28;20072;-79
2024/02/12 12:55:25;;;;;;;3.25;1.20;;;;;;;;;;5036187;28;20048;-79
2024/02/12 12:57:53;;;;;;;4.22;1.85;;;;;;;;;;5048644;28;20222;-78
2024/02/12 13:00:28;;;;;;;4.18;1.35;;;;;;;;;;5045170;28;20049;-78
2024/02/12 13:02:56;;;;;;;;;;;;;;;;;;5044693;28;20172;-78
2024/02/12 13:05:28;;;;;;;3.35;1.13;;;;;;;;;;5058386;28;20000;-78
2024/02/12 13:07:58;;;;;;;1.52;1.15;;;;;;;;;;5046864;28;20049;-78
2024/02/12 13:10:52;;;;;;;1.73;1.00;;;;;;;;;;5046832;28;20135;-78
2024/02/12 13:13:27;;;;;;;2.25;0.88;;;;;;;;;;5040601;28;20049;-78
2024/02/12 13:15:58;;;;;;;3.40;1.33;;;;;;;;;;5045913;28;20060;-79
2024/02/12 13:18:32;;;;;;;2.83;0.85;;;;;;;;;;5020614;28;20042;-78
2024/02/12 13:21:02;;;;;;;1.52;1.20;;;;;;;;;;5048826;28;20048;-78
2024/02/12 13:23:30;;;;;;;1.15;0.70;;;;;;;;;;5046224;28;20041;-78
2024/02/12 13:26:01;;;;;;;2.22;0.88;;;;;;;;;;5027841;28;20486;-78
2024/02/12 13:28:30;;;;;;;1.70;0.95;;;;;;;;;;5044118;28;20045;-78
2024/02/12 13:31:00;;;;;;;1.20;0.98;;;;;;;;;;5044245;28;20081;-78
2024/02/12 13:33:31;;;;;;;4.28;0.75;;;;;;;;;;5042923;28;20045;-78
2024/02/12 13:35:59;;;;;;;2.45;1.17;;;;;;;;;;5049369;28;20060;-78
2024/02/12 13:38:30;;;;;;;1.05;0.85;;;;;;;;;;5051043;28;20052;-78
2024/02/12 13:41:04;;;;;;;2.20;1.17;;;;;;;;;;5026491;28;20465;-78
2024/02/12 13:43:32;;;;;;;1.25;0.60;;;;;;;;;;5044904;28;20049;-78
2024/02/12 13:46:01;;;;;;;2.47;1.30;;;;;;;;;;5058447;28;20046;-78
2024/02/12 13:48:29;;;;;;;1.85;0.82;;;;;;;;;;5037459;28;20056;-78
2024/02/12 13:50:59;;;;;;;1.88;0.70;;;;;;;;;;5047828;28;20565;-78
2024/02/12 13:53:27;;;;;;;1.27;0.95;;;;;;;;;;5029006;28;20067;-77
2024/02/12 13:55:58;;;;;;;2.33;1.00;;;;;;;;;;5059363;28;20396;-78
2024/02/12 13:58:28;;;;;;;;;;;;;;;;;;5031175;28;20041;-79
2024/02/12 14:01:00;;;;;;;1.88;0.90;;;;;;;;;;5060259;28;19971;-77
2024/02/12 14:03:51;;;;;;;1.63;0.93;;;;;;;;;;5057596;28;20132;-78
2024/02/12 14:06:21;;;;;;;3.17;1.02;;;;;;;;;;5040023;28;20044;-78
2024/02/12 14:08:49;;;;;;;2.65;1.13;;;;;;;;;;5042583;28;20049;-78
2024/02/12 14:11:20;;;;;;;1.73;1.00;;;;;;;;;;5053253;28;20115;-78
2024/02/12 14:13:51;;;;;;;2.40;1.05;;;;;;;;;;5026167;28;20072;-78
2024/02/12 14:16:19;;;;;;;3.58;0.88;;;;;;;;;;5025408;28;20528;-78
2024/02/12 14:18:49;;;;;;;1.15;0.90;;;;;;;;;;5047440;28;20056;-78
2024/02/12 14:21:22;;;;;;;;;;;;;;;;;;5060013;28;20083;-78
2024/02/12 14:23:54;;;;;;;1.10;0.80;;;;;;;;;;5045492;28;19921;-79
2024/02/12 14:26:35;;;;;;;1.42;1.00;;;;;;;;;;5046600;28;20045;-78
2024/02/12 14:29:03;;;;;;;2.53;1.30;;;;;;;;;;5051045;28;20072;-79
2024/02/12 14:31:37;;;;;;;1.92;1.00;;;;;;;;;;5043759;28;20056;-78
2024/02/12 14:34:25;;;;;;;4.25;0.98;;;;;;;;;;5029090;28;20115;-79
2024/02/12 14:36:54;;;;;;;2.35;0.85;;;;;;;;;;5040964;28;20421;-79
2024/02/12 14:39:27;;;;;;;3.50;0.82;;;;;;;;;;5098930;22;20736;-75
2024/02/12 14:41:59;;;;;;;1.50;0.68;;;;;;;;;;5050942;28;20088;-74
2024/02/12 14:44:30;;;;;;;3.63;0.80;;;;;;;;;;5019399;28;20041;-74
2024/02/12 14:46:57;;;;;;;3.33;0.75;;;;;;;;;;5034294;28;20091;-74
2024/02/12 14:49:28;;;;;;;1.63;0.70;;;;;;;;;;5018681;28;20092;-74
2024/02/12 14:52:06;;;;;;;2.13;0.70;;;;;;;;;;5035047;28;20049;-74
2024/02/12 14:54:35;;;;;;;2.25;0.90;;;;;;;;;;5034791;28;20053;-74
2024/02/12 14:57:03;;;;;;;1.58;0.98;;;;;;;;;;5034292;28;20581;-75
2024/02/12 14:59:34;;;;;;;2.70;1.05;;;;;;;;;;5035011;28;20410;-74
2024/02/12 15:02:05;;;;;;;2.20;0.90;;;;;;;;;;5018430;28;20057;-75
2024/02/12 15:04:36;;;;;;;3.22;1.13;;;;;;;;;;5018138;28;20048;-74
2024/02/12 15:07:12;;;;;;;3.25;1.00;;;;;;;;;;5018078;28;20045;-74
2024/02/12 15:09:46;;;;;;;3.13;1.20;;;;;;;;;;5015229;28;20084;-75
2024/02/12 15:12:27;;;;;;;4.30;0.80;;;;;;;;;;5033455;28;20048;-75
2024/02/12 15:15:04;;;;;;;1.23;0.80;;;;;;;;;;5018827;28;20556;-75
2024/02/12 15:17:40;;;;;;;1.63;0.60;;;;;;;;;;5034567;28;20049;-74